Aeroporto :
LOGIN :

Iscrizione | Disclaimer

   EN    FR    IT 

 










Sommario :    VFR   VFR Marginale   IFR   IFR Intensivo   IFR Molto Intensivo
Visibilità : 
Base nubi : 
>= 8 km
>= 3000ft
5 / 8 km
1000 / 3000 ft
1500m / 5 km
500 / 1000 ft
800 / 1500m
200 / 500 ft
< 800m
< 200 ft
Simboli :   Temporali  Nebbia  Neve Forte  Precipitazioni Forti  Vento > 20 kt
SIGMETs :   Varie  Temporali  Ghiacco  Turbolenza  Onda orograficha  Ceneri Vulcaniche







- Altitudine del aeroporto : 19 ft
- Codice IATA : LCY
- Carte del aeroporto


EGLC - London City

ULTIMO METAR :
  • 260150Z AUTO 22005KT 180V260 9999 NCD 09/07 Q1007

METARs OBSOLETI :
  • 260120Z AUTO 22004KT 160V240 9999 NCD 09/07 Q1006
  • 260050Z AUTO 24004KT 200V270 9999 NCD 09/07 Q1006
  • 260020Z AUTO 21006KT 180V240 9999 NCD 10/07 Q1006
  • 252350Z AUTO 20006KT 140V240 9999 NCD 10/07 Q1006
  • 252320Z AUTO 20007KT 160V230 9999 NCD 10/07 Q1006

Previsioni scadute.
ATIS : +44 20 7646 0224
Nessun NOTAM noto per questo aeroporto.



MetMap, La meteo Aeronautica in un colpo d'occhio ! - Copyright ORBIFLY Dicembre 2007 - Disclaimer

ORBIFLY MET'MAP TEAM :

Programmazione e sviluppo : Alexandra Zaïnal
Concezione e sviluppo : Baudouin d'Aumeries
Co-Programmazione e sviluppo : Marc-Olivier Méhu
Supporto tecnico e logistico : Manuel Goepfert
Aiuto per la traduzione : Arnaldo La Scala

Contatto : metmap@orbifly.com




FONTI E CREDITI :

   NOAA